Portada
METAR-TAF:

METAR-TAF

Aeroports :

Apalachicola, Florida, Estats Units d'Amèrica

latitud: 29-43-37N, longitud: 085-01-29W, altitud: 6 m

Observació

L'informe es va fer fa 23 minuts, a les 05:53 UTC
Vent 3 kt del Est
Temperatura 26°C
Humitat 84%
Pressió 1015 hPa
Visibilitat: 16.1 km
Cel clar

METAR: KAAF 160553Z AUTO 10003KT 10SM CLR 26/23 A2998 RMK AO2 SLP152 T02560233 10283 20256 55001 $

Hora: 02:16 (06:16 UTC)


TAF: manca

Observacions i pronòstics meteorològics de més de 4000 aeroports (METAR i TAF).

Les estacions disponibles són els punts grocs i vermells al mapa.

Posi el ratolí al punt desitjat per veure el nom de l'estació.

Feu clic per veure les observacions i els pronòstics meteorològics.

Per canviar el mapa: feu clic els botons verds amb una creu de color negre per apropar; al botó verd amb un guió per allunyar la imatge; o en les fletxes verdes per a mapes adjacents.


METAR-TAF: